createdAt,value
2017-09-27T00:00:40.798Z,38.20
2017-09-27T00:03:08.399Z,37.35
2017-09-27T00:05:36.741Z,38.65
2017-09-27T00:08:04.430Z,37.67
2017-09-27T00:10:32.832Z,40.53
2017-09-27T00:13:01.288Z,42.43
2017-09-27T00:15:28.947Z,43.37
2017-09-27T00:17:57.337Z,40.37
2017-09-27T00:20:24.946Z,40.43
2017-09-27T00:22:52.547Z,40.93
2017-09-27T00:25:20.141Z,45.53
2017-09-27T00:27:47.782Z,43.50
2017-09-27T00:30:15.457Z,39.50
2017-09-27T00:32:43.822Z,42.37
2017-09-27T00:35:11.454Z,39.90
2017-09-27T00:37:39.827Z,40.77
2017-09-27T00:40:07.405Z,41.07
2017-09-27T00:42:35.011Z,40.93
2017-09-27T00:45:02.603Z,42.07
2017-09-27T00:47:30.241Z,44.10
2017-09-27T00:49:57.860Z,42.30
2017-09-27T00:52:25.500Z,45.05
2017-09-27T00:54:54.709Z,42.23
2017-09-27T00:57:22.314Z,41.88
2017-09-27T00:59:49.943Z,43.47
2017-09-27T01:02:17.516Z,41.20
2017-09-27T01:04:45.137Z,40.93
2017-09-27T01:07:13.504Z,42.30
2017-09-27T01:09:41.097Z,43.20
2017-09-27T01:12:09.491Z,41.77
2017-09-27T01:14:37.099Z,42.00
2017-09-27T01:17:05.197Z,44.47
2017-09-27T01:19:33.596Z,43.75
2017-09-27T01:22:01.279Z,45.33
2017-09-27T01:24:28.905Z,43.87
2017-09-27T01:26:57.325Z,41.77
2017-09-27T01:29:25.009Z,44.20
2017-09-27T01:31:52.664Z,41.53
2017-09-27T01:34:21.624Z,43.80
2017-09-27T01:36:49.261Z,42.43
2017-09-27T01:39:18.596Z,48.00
2017-09-27T01:41:46.201Z,45.13
2017-09-27T01:44:13.859Z,45.03
2017-09-27T01:46:41.441Z,44.73
2017-09-27T01:49:09.055Z,42.87
2017-09-27T01:51:36.706Z,44.38
2017-09-27T01:54:04.287Z,46.90
2017-09-27T01:56:31.966Z,46.13
2017-09-27T01:58:59.565Z,45.60
2017-09-27T02:01:27.274Z,43.40
2017-09-27T02:03:54.914Z,44.00
2017-09-27T02:06:22.495Z,46.17
2017-09-27T02:08:50.121Z,45.97
2017-09-27T02:11:17.721Z,46.40
2017-09-27T02:13:45.350Z,47.40
2017-09-27T02:16:12.941Z,48.57
2017-09-27T02:18:40.571Z,46.13
2017-09-27T02:21:08.173Z,45.03
2017-09-27T02:23:36.544Z,46.17
2017-09-27T02:26:04.174Z,46.00
2017-09-27T02:28:31.757Z,46.97
2017-09-27T02:30:59.368Z,45.53
2017-09-27T02:33:27.020Z,47.70
2017-09-27T02:35:55.398Z,45.33
2017-09-27T02:38:24.371Z,46.90
2017-09-27T02:40:51.948Z,44.97
2017-09-27T02:43:20.331Z,45.37
2017-09-27T02:45:47.975Z,48.20
2017-09-27T02:48:16.375Z,47.77
2017-09-27T02:50:43.972Z,45.80
2017-09-27T02:53:11.585Z,47.10
2017-09-27T02:55:39.198Z,44.57
2017-09-27T02:58:06.762Z,45.97
2017-09-27T03:00:34.413Z,46.13
2017-09-27T03:03:02.004Z,47.53
2017-09-27T03:05:29.665Z,45.47
2017-09-27T03:07:57.241Z,48.37
2017-09-27T03:10:25.659Z,44.83
2017-09-27T03:12:53.250Z,47.50
2017-09-27T03:15:20.946Z,45.43
2017-09-27T03:17:49.331Z,48.70
2017-09-27T03:20:17.584Z,46.97
2017-09-27T03:22:45.964Z,48.67
2017-09-27T03:25:14.362Z,44.30
2017-09-27T03:27:42.756Z,50.00
2017-09-27T03:30:10.388Z,47.03
2017-09-27T03:32:38.026Z,46.40
2017-09-27T03:35:05.623Z,48.37
2017-09-27T03:37:34.043Z,47.50
2017-09-27T03:40:02.578Z,49.07
2017-09-27T03:42:30.924Z,73.23
2017-09-27T03:44:58.615Z,45.20
2017-09-27T03:47:26.265Z,48.27
2017-09-27T03:49:54.675Z,46.50
2017-09-27T03:52:23.051Z,49.17
2017-09-27T03:54:50.670Z,45.47
2017-09-27T03:57:18.528Z,47.20
2017-09-27T03:59:46.171Z,49.77
2017-09-27T04:02:13.830Z,47.97
2017-09-27T04:04:41.386Z,48.07
2017-09-27T04:07:08.973Z,48.20
2017-09-27T04:09:36.621Z,45.65
2017-09-27T04:12:04.190Z,43.17
2017-09-27T04:14:31.890Z,43.77
2017-09-27T04:16:59.618Z,45.90
2017-09-27T04:19:27.215Z,47.00
2017-09-27T04:21:54.821Z,44.70
2017-09-27T04:24:22.373Z,42.77
2017-09-27T04:26:50.002Z,43.37
2017-09-27T04:29:17.616Z,40.03
2017-09-27T04:31:45.224Z,45.37
2017-09-27T04:34:12.887Z,46.50
2017-09-27T04:36:40.523Z,44.47
2017-09-27T04:39:08.820Z,47.13
2017-09-27T04:41:36.402Z,46.27
2017-09-27T04:44:04.799Z,43.53
2017-09-27T04:46:32.414Z,44.57
2017-09-27T04:49:00.642Z,42.97
2017-09-27T04:51:28.264Z,45.90
2017-09-27T04:53:55.914Z,43.50
2017-09-27T04:56:23.521Z,45.73
2017-09-27T04:58:51.388Z,46.10
2017-09-27T05:01:18.994Z,44.80
2017-09-27T05:03:47.274Z,44.07
2017-09-27T05:06:14.931Z,43.80
2017-09-27T05:08:42.563Z,43.13
2017-09-27T05:11:11.011Z,44.50
2017-09-27T05:13:39.384Z,45.10
2017-09-27T05:16:07.730Z,44.00
2017-09-27T05:18:35.334Z,45.30
2017-09-27T05:21:02.916Z,47.70
2017-09-27T05:23:30.525Z,45.20
2017-09-27T05:25:59.036Z,47.77
2017-09-27T05:28:26.689Z,46.27
2017-09-27T05:30:55.030Z,46.47
2017-09-27T05:33:22.619Z,46.30
2017-09-27T05:35:50.202Z,46.67
2017-09-27T05:38:17.796Z,44.70
2017-09-27T05:40:45.639Z,43.23
2017-09-27T05:43:13.228Z,46.93
2017-09-27T05:45:40.854Z,46.07
2017-09-27T05:48:08.469Z,44.63
2017-09-27T05:50:36.066Z,46.53
2017-09-27T05:53:03.677Z,44.40
2017-09-27T05:55:31.279Z,44.00
2017-09-27T05:57:58.885Z,42.93
2017-09-27T06:00:26.555Z,45.40
2017-09-27T06:02:54.170Z,44.20
2017-09-27T06:05:21.768Z,44.97
2017-09-27T06:07:49.536Z,43.47
2017-09-27T06:10:17.164Z,44.83
2017-09-27T06:12:44.736Z,44.20
2017-09-27T06:15:13.136Z,40.60
2017-09-27T06:17:40.731Z,43.43
2017-09-27T06:20:09.130Z,41.93
2017-09-27T06:22:38.106Z,44.00
2017-09-27T06:25:05.764Z,41.73
2017-09-27T06:27:34.162Z,46.00
2017-09-27T06:30:02.541Z,44.07
2017-09-27T06:32:30.113Z,44.83
2017-09-27T06:34:57.689Z,40.73
2017-09-27T06:37:25.518Z,42.50
2017-09-27T06:39:53.871Z,45.57
2017-09-27T06:42:21.495Z,38.97
2017-09-27T06:44:49.081Z,41.70
2017-09-27T06:47:16.667Z,40.30
2017-09-27T06:49:45.068Z,45.43
2017-09-27T06:52:12.655Z,41.97
2017-09-27T06:54:40.265Z,42.67
2017-09-27T06:57:08.673Z,41.90
2017-09-27T06:59:36.290Z,40.60
2017-09-27T07:02:03.882Z,41.23
2017-09-27T07:04:32.226Z,41.43
2017-09-27T07:06:59.833Z,41.53
2017-09-27T07:09:27.427Z,43.17
2017-09-27T07:11:55.063Z,42.67
2017-09-27T07:14:22.636Z,42.33
2017-09-27T07:16:50.275Z,41.73
2017-09-27T07:19:17.840Z,42.37
2017-09-27T07:21:45.502Z,40.23
2017-09-27T07:24:13.074Z,40.10
2017-09-27T07:26:40.641Z,41.60
2017-09-27T07:29:08.251Z,40.60
2017-09-27T07:31:35.873Z,40.70
2017-09-27T07:34:03.484Z,41.90
2017-09-27T07:36:31.855Z,39.57
2017-09-27T07:39:00.205Z,39.30
2017-09-27T07:41:27.837Z,39.67
2017-09-27T07:43:55.592Z,40.63
2017-09-27T07:46:23.229Z,39.73
2017-09-27T07:48:51.922Z,37.60
2017-09-27T07:51:19.533Z,37.43
2017-09-27T07:53:47.178Z,40.87
2017-09-27T07:56:14.758Z,39.37
2017-09-27T07:58:42.326Z,39.90
2017-09-27T08:01:10.765Z,40.30
2017-09-27T08:03:38.415Z,40.17
2017-09-27T08:06:05.986Z,39.63
2017-09-27T08:08:33.608Z,39.20
2017-09-27T08:11:01.190Z,37.20
2017-09-27T08:13:29.541Z,37.13
2017-09-27T08:15:57.161Z,38.07
2017-09-27T08:18:24.762Z,39.50
2017-09-27T08:20:52.688Z,40.70
2017-09-27T08:23:20.284Z,38.40
2017-09-27T08:25:49.485Z,38.50
2017-09-27T08:28:17.140Z,38.20
2017-09-27T08:30:44.750Z,38.57
2017-09-27T08:33:12.336Z,38.13
2017-09-27T08:35:39.946Z,37.47
2017-09-27T08:38:08.334Z,37.43
2017-09-27T08:40:36.732Z,39.47
2017-09-27T08:43:04.392Z,35.53
2017-09-27T08:45:32.027Z,37.57
2017-09-27T08:47:59.645Z,35.37
2017-09-27T08:50:27.270Z,35.53
2017-09-27T08:52:55.509Z,38.33
2017-09-27T08:55:23.082Z,35.93
2017-09-27T08:57:50.710Z,37.23
2017-09-27T09:00:18.296Z,33.30
2017-09-27T09:02:45.925Z,35.17
2017-09-27T09:05:13.536Z,35.10
2017-09-27T09:07:41.902Z,33.53
2017-09-27T09:10:10.296Z,32.90
2017-09-27T09:12:38.654Z,30.00
2017-09-27T09:15:06.249Z,32.03
2017-09-27T09:17:33.835Z,32.73
2017-09-27T09:20:01.476Z,32.77
2017-09-27T09:22:29.777Z,30.77
2017-09-27T09:24:57.406Z,32.90
2017-09-27T09:27:25.035Z,31.43
2017-09-27T09:29:52.604Z,31.30
2017-09-27T09:32:20.952Z,33.23
2017-09-27T09:34:49.337Z,32.53
2017-09-27T09:37:16.952Z,34.80
2017-09-27T09:39:44.562Z,35.10
2017-09-27T09:42:12.157Z,34.80
2017-09-27T09:44:40.526Z,31.50
2017-09-27T09:47:08.890Z,30.40
2017-09-27T09:49:36.440Z,29.10
2017-09-27T09:52:04.088Z,33.83
2017-09-27T09:54:31.709Z,32.17
2017-09-27T09:56:59.380Z,33.90
2017-09-27T09:59:26.967Z,36.53
2017-09-27T10:01:54.622Z,32.20
2017-09-27T10:04:22.194Z,31.07
2017-09-27T10:06:49.779Z,30.07
2017-09-27T10:09:17.664Z,29.50
2017-09-27T10:11:46.042Z,29.60
2017-09-27T10:14:14.407Z,27.97
2017-09-27T10:16:41.990Z,45.20
2017-09-27T10:19:09.587Z,28.77
2017-09-27T10:21:37.254Z,36.27
2017-09-27T10:24:04.840Z,30.97
2017-09-27T10:26:32.450Z,35.77
2017-09-27T10:29:00.082Z,29.33
2017-09-27T10:31:28.456Z,32.17
2017-09-27T10:33:56.815Z,33.13
2017-09-27T10:36:24.445Z,31.33
2017-09-27T10:38:52.106Z,30.40
2017-09-27T10:41:19.709Z,32.57
2017-09-27T10:43:47.300Z,30.60
2017-09-27T10:46:14.887Z,28.23
2017-09-27T10:48:42.965Z,32.70
2017-09-27T10:51:10.572Z,29.37
2017-09-27T10:53:38.208Z,28.90
2017-09-27T10:56:05.835Z,29.97
2017-09-27T10:58:33.459Z,30.77
2017-09-27T11:01:01.856Z,33.33
2017-09-27T11:03:29.480Z,31.50
2017-09-27T11:05:57.065Z,29.23
2017-09-27T11:08:25.438Z,27.03
2017-09-27T11:10:53.791Z,28.93
2017-09-27T11:13:21.342Z,27.40
2017-09-27T11:15:48.978Z,25.73
2017-09-27T11:18:16.651Z,27.43
2017-09-27T11:20:45.146Z,27.97
2017-09-27T11:23:12.820Z,26.47
2017-09-27T11:25:40.406Z,32.20
2017-09-27T11:28:08.050Z,65.73
2017-09-27T11:30:35.604Z,26.37
2017-09-27T11:33:03.304Z,25.10
2017-09-27T11:35:30.873Z,30.57
2017-09-27T11:37:58.595Z,26.50
2017-09-27T11:40:26.233Z,25.60
2017-09-27T11:42:53.811Z,80.20
2017-09-27T11:45:21.425Z,22.93
2017-09-27T11:47:48.993Z,22.70
2017-09-27T11:50:16.588Z,32.03
2017-09-27T11:52:44.222Z,34.47
2017-09-27T11:55:11.841Z,24.13
2017-09-27T11:57:39.424Z,39.37
2017-09-27T12:00:07.050Z,27.97
2017-09-27T12:02:34.697Z,25.00
2017-09-27T12:05:02.306Z,33.20
2017-09-27T12:07:29.943Z,22.87
2017-09-27T12:09:58.346Z,29.67
2017-09-27T12:12:26.021Z,23.37
2017-09-27T12:14:53.644Z,31.30
2017-09-27T12:17:21.310Z,19.97
2017-09-27T12:19:49.661Z,22.83
2017-09-27T12:22:17.280Z,22.00
2017-09-27T12:24:44.889Z,22.47
2017-09-27T12:27:12.613Z,24.23
2017-09-27T12:29:40.247Z,30.43
2017-09-27T12:32:07.952Z,21.60
2017-09-27T12:34:35.713Z,24.87
2017-09-27T12:37:03.306Z,21.73
2017-09-27T12:39:30.895Z,23.93
2017-09-27T12:41:58.568Z,19.50
2017-09-27T12:44:26.148Z,20.80
2017-09-27T12:46:53.758Z,24.53
2017-09-27T12:49:21.357Z,21.67
2017-09-27T12:51:49.000Z,23.50
2017-09-27T12:54:16.601Z,21.13
2017-09-27T12:56:44.937Z,20.90
2017-09-27T12:59:12.527Z,22.50
2017-09-27T13:01:40.088Z,22.10
2017-09-27T13:04:07.805Z,19.80
2017-09-27T13:06:35.388Z,20.83
2017-09-27T13:09:02.996Z,25.30
2017-09-27T13:11:30.580Z,21.67
2017-09-27T13:13:58.157Z,19.50
2017-09-27T13:16:25.797Z,18.83
2017-09-27T13:18:53.416Z,18.73
2017-09-27T13:21:21.790Z,23.33
2017-09-27T13:23:50.167Z,19.37
2017-09-27T13:26:17.822Z,30.00
2017-09-27T13:28:45.399Z,25.37
2017-09-27T13:31:13.808Z,36.43
2017-09-27T13:33:41.440Z,17.97
2017-09-27T13:36:09.053Z,19.57
2017-09-27T13:38:36.634Z,18.40
2017-09-27T13:41:05.023Z,19.57
2017-09-27T13:43:32.662Z,21.40
2017-09-27T13:46:01.060Z,17.60
2017-09-27T13:48:29.074Z,17.20
2017-09-27T13:50:56.764Z,16.60
2017-09-27T13:53:24.386Z,16.40
2017-09-27T13:55:52.064Z,17.77
2017-09-27T13:58:19.672Z,17.50
2017-09-27T14:00:48.038Z,17.50
2017-09-27T14:03:16.393Z,15.07
2017-09-27T14:05:43.989Z,15.00
2017-09-27T14:08:12.359Z,13.53
2017-09-27T14:10:40.691Z,16.90
2017-09-27T14:13:08.403Z,14.47
2017-09-27T14:15:36.759Z,15.20
2017-09-27T14:18:04.419Z,13.53
2017-09-27T14:20:32.022Z,23.63
2017-09-27T14:22:59.689Z,20.77
2017-09-27T14:25:27.277Z,17.13
2017-09-27T14:27:54.826Z,18.70
2017-09-27T14:30:23.252Z,19.37
2017-09-27T14:32:51.646Z,20.10
2017-09-27T14:35:20.082Z,18.00
2017-09-27T14:37:50.319Z,19.07
2017-09-27T14:40:17.897Z,17.90
2017-09-27T14:42:46.254Z,15.83
2017-09-27T14:45:13.840Z,17.00
2017-09-27T14:47:42.267Z,15.73
2017-09-27T14:50:09.860Z,16.87
2017-09-27T14:52:38.373Z,15.17
2017-09-27T14:55:06.728Z,14.90
2017-09-27T14:57:34.321Z,19.93
2017-09-27T15:00:01.937Z,16.50
2017-09-27T15:02:29.546Z,19.17
2017-09-27T15:04:57.126Z,20.23
2017-09-27T15:07:24.745Z,17.90
2017-09-27T15:09:53.110Z,18.03
2017-09-27T15:12:21.483Z,19.83
2017-09-27T15:14:50.029Z,21.33
2017-09-27T15:17:17.668Z,21.30
2017-09-27T15:19:45.245Z,19.67
2017-09-27T15:22:12.909Z,20.97
2017-09-27T15:24:40.509Z,24.53
2017-09-27T15:27:09.007Z,19.33
2017-09-27T15:29:36.612Z,20.87
2017-09-27T15:32:04.986Z,22.70
2017-09-27T15:34:32.590Z,21.37
2017-09-27T15:37:00.940Z,23.17
2017-09-27T15:39:28.577Z,23.97
2017-09-27T15:41:56.147Z,20.17
2017-09-27T15:44:23.749Z,21.33
2017-09-27T15:46:51.361Z,21.00
2017-09-27T15:49:19.010Z,21.20
2017-09-27T15:51:47.185Z,21.80
2017-09-27T15:54:14.767Z,21.17
2017-09-27T15:56:42.382Z,20.47
2017-09-27T15:59:09.960Z,23.67
2017-09-27T16:01:37.722Z,22.60
2017-09-27T16:04:05.316Z,23.87
2017-09-27T16:06:33.431Z,22.90
2017-09-27T16:09:01.044Z,23.43
2017-09-27T16:11:28.688Z,22.50
2017-09-27T16:13:56.354Z,21.77
2017-09-27T16:16:23.973Z,24.10
2017-09-27T16:18:52.347Z,23.90
2017-09-27T16:21:19.929Z,22.73
2017-09-27T16:23:47.547Z,24.10
2017-09-27T16:26:15.922Z,25.07
2017-09-27T16:28:43.511Z,23.30
2017-09-27T16:31:11.084Z,22.67
2017-09-27T16:33:38.663Z,24.10
2017-09-27T16:36:06.261Z,22.80
2017-09-27T16:38:33.893Z,24.10
2017-09-27T16:41:01.482Z,23.87
2017-09-27T16:43:29.103Z,20.83
2017-09-27T16:45:56.712Z,22.50
2017-09-27T16:48:24.350Z,23.80
2017-09-27T16:50:51.984Z,22.80
2017-09-27T16:53:19.644Z,24.77
2017-09-27T16:55:47.242Z,23.07
2017-09-27T16:58:14.931Z,24.57
2017-09-27T17:00:44.259Z,22.90
2017-09-27T17:03:11.868Z,23.33
2017-09-27T17:05:39.448Z,23.27
2017-09-27T17:08:08.814Z,24.50
2017-09-27T17:10:36.454Z,22.87
2017-09-27T17:13:04.059Z,22.93
2017-09-27T17:15:31.663Z,22.77
2017-09-27T17:17:59.269Z,23.00
2017-09-27T17:20:26.865Z,23.90
2017-09-27T17:22:55.260Z,26.40
2017-09-27T17:25:22.814Z,23.67
2017-09-27T17:27:50.419Z,23.43
2017-09-27T17:30:18.023Z,25.57
2017-09-27T17:32:47.184Z,25.67
2017-09-27T17:35:15.693Z,26.10
2017-09-27T17:37:44.133Z,25.83
2017-09-27T17:40:12.551Z,25.20
2017-09-27T17:42:40.153Z,24.30
2017-09-27T17:45:07.776Z,27.00
2017-09-27T17:47:36.239Z,26.70
2017-09-27T17:50:03.827Z,25.57
2017-09-27T17:52:32.192Z,25.00
2017-09-27T17:55:00.557Z,25.43
2017-09-27T17:57:28.172Z,26.23
2017-09-27T17:59:55.832Z,25.63
2017-09-27T18:02:23.462Z,30.40
2017-09-27T18:05:03.608Z,24.47
2017-09-27T18:07:36.912Z,26.67
2017-09-27T18:10:10.331Z,26.50
2017-09-27T18:15:45.920Z,27.20
2017-09-27T18:18:16.833Z,29.07
2017-09-27T18:20:44.412Z,28.47
2017-09-27T18:23:12.009Z,31.83
2017-09-27T18:25:39.657Z,33.30
2017-09-27T18:28:07.316Z,28.40
2017-09-27T18:30:34.938Z,29.00
2017-09-27T18:33:02.515Z,27.80
2017-09-27T18:35:30.262Z,28.87
2017-09-27T18:37:57.858Z,29.90
2017-09-27T18:40:25.439Z,29.30
2017-09-27T18:42:53.086Z,26.23
2017-09-27T18:45:20.645Z,30.10
2017-09-27T18:47:48.239Z,31.00
2017-09-27T18:50:16.205Z,29.30
2017-09-27T18:52:44.596Z,29.90
2017-09-27T18:55:12.225Z,28.90
2017-09-27T18:57:39.780Z,28.70
2017-09-27T19:00:07.381Z,30.67
2017-09-27T19:02:36.629Z,29.40
2017-09-27T19:05:04.305Z,27.47
2017-09-27T19:07:31.918Z,28.87
2017-09-27T19:09:59.521Z,30.07
2017-09-27T19:12:27.162Z,31.73
2017-09-27T19:14:55.208Z,29.00
2017-09-27T19:17:22.813Z,30.50
2017-09-27T19:19:50.389Z,30.37
2017-09-27T19:22:17.966Z,31.37
2017-09-27T19:24:45.758Z,30.77
2017-09-27T19:27:13.357Z,32.27
2017-09-27T19:29:41.003Z,31.80
2017-09-27T19:32:08.669Z,30.70
2017-09-27T19:34:36.409Z,30.40
2017-09-27T19:37:04.095Z,29.77
2017-09-27T19:39:31.772Z,29.00
2017-09-27T19:41:59.451Z,30.77
2017-09-27T19:44:27.106Z,31.70
2017-09-27T19:46:54.825Z,33.23
2017-09-27T19:49:24.216Z,31.70
2017-09-27T19:51:51.805Z,33.20
2017-09-27T19:54:20.227Z,33.30
2017-09-27T19:56:48.626Z,30.53
2017-09-27T19:59:16.673Z,30.97
2017-09-27T20:01:44.404Z,33.10
2017-09-27T20:04:12.006Z,32.23
2017-09-27T20:06:40.365Z,31.00
2017-09-27T20:09:08.005Z,35.53
2017-09-27T20:11:37.015Z,32.17
2017-09-27T20:14:04.666Z,35.23
2017-09-27T20:16:32.286Z,35.63
2017-09-27T20:18:59.909Z,34.77
2017-09-27T20:21:27.567Z,35.20
2017-09-27T20:23:55.118Z,31.10
2017-09-27T20:26:23.805Z,34.37
2017-09-27T20:28:51.406Z,33.77
2017-09-27T20:31:19.161Z,34.20
2017-09-27T20:33:47.528Z,33.93
2017-09-27T20:36:15.890Z,34.13
2017-09-27T20:38:43.635Z,35.20
2017-09-27T20:41:11.232Z,35.03
2017-09-27T20:43:38.865Z,33.90
2017-09-27T20:46:06.464Z,34.13
2017-09-27T20:48:34.101Z,34.57
2017-09-27T20:51:02.299Z,32.60
2017-09-27T20:53:30.684Z,33.23
2017-09-27T20:55:58.272Z,31.57
2017-09-27T20:58:25.863Z,34.57
2017-09-27T21:00:53.521Z,34.60
2017-09-27T21:03:21.125Z,36.03
2017-09-27T21:05:49.579Z,35.27
2017-09-27T21:08:17.221Z,33.53
2017-09-27T21:10:44.824Z,36.20
2017-09-27T21:13:12.515Z,35.67
2017-09-27T21:15:40.308Z,35.93
2017-09-27T21:18:07.950Z,34.97
2017-09-27T21:20:35.525Z,38.27
2017-09-27T21:23:03.085Z,37.10
2017-09-27T21:25:30.695Z,34.57
2017-09-27T21:27:59.109Z,38.07
2017-09-27T21:30:27.529Z,35.97
2017-09-27T21:32:55.903Z,36.97
2017-09-27T21:35:23.519Z,38.67
2017-09-27T21:37:51.111Z,36.80
2017-09-27T21:40:18.709Z,34.80
2017-09-27T21:42:46.389Z,38.03
2017-09-27T21:45:14.012Z,36.40
2017-09-27T21:47:42.463Z,37.70
2017-09-27T21:50:10.072Z,39.00
2017-09-27T21:52:38.447Z,36.70
2017-09-27T21:55:06.839Z,36.57
2017-09-27T21:57:34.492Z,36.50
2017-09-27T22:00:02.096Z,40.30
2017-09-27T22:02:29.719Z,42.07
2017-09-27T22:04:58.138Z,35.67
2017-09-27T22:07:25.734Z,36.63
2017-09-27T22:09:53.331Z,38.47
2017-09-27T22:12:20.952Z,39.03
2017-09-27T22:14:48.547Z,38.80
2017-09-27T22:17:16.169Z,35.80
2017-09-27T22:19:44.344Z,37.30
2017-09-27T22:22:11.894Z,37.63
2017-09-27T22:24:39.486Z,36.07
2017-09-27T22:27:07.071Z,38.40
2017-09-27T22:29:34.640Z,37.57
2017-09-27T22:32:02.272Z,38.37
2017-09-27T22:34:30.715Z,37.63
2017-09-27T22:36:58.298Z,42.10
2017-09-27T22:39:25.973Z,39.37
2017-09-27T22:41:54.405Z,42.30
2017-09-27T22:44:21.978Z,36.83
2017-09-27T22:46:49.573Z,41.00
2017-09-27T22:49:17.996Z,37.80
2017-09-27T22:51:45.580Z,38.00
2017-09-27T22:54:13.195Z,38.30
2017-09-27T22:56:40.798Z,39.97
2017-09-27T22:59:08.424Z,39.80
2017-09-27T23:01:36.073Z,38.33
2017-09-27T23:04:03.694Z,39.93
2017-09-27T23:06:31.291Z,39.93
2017-09-27T23:08:59.605Z,40.33
2017-09-27T23:11:27.274Z,39.30
2017-09-27T23:13:54.840Z,37.70
2017-09-27T23:16:22.397Z,40.77
2017-09-27T23:18:50.243Z,37.40
2017-09-27T23:21:17.812Z,40.27
2017-09-27T23:23:45.434Z,40.53
2017-09-27T23:26:13.827Z,40.07
2017-09-27T23:28:41.467Z,39.33
2017-09-27T23:31:09.823Z,37.87
2017-09-27T23:33:37.423Z,39.85
2017-09-27T23:36:05.028Z,40.90
2017-09-27T23:38:32.692Z,41.93
2017-09-27T23:41:00.842Z,39.60
2017-09-27T23:43:28.429Z,38.90
2017-09-27T23:45:55.995Z,40.93
2017-09-27T23:48:23.600Z,40.90
2017-09-27T23:50:51.175Z,40.47
2017-09-27T23:53:19.693Z,41.70
2017-09-27T23:55:47.321Z,39.13
2017-09-27T23:58:14.875Z,39.80
